createdAt,value
2023-05-16T00:02:29.327Z,14.00
2023-05-16T00:05:38.042Z,16.67
2023-05-16T00:08:41.696Z,14.00
2023-05-16T00:11:47.044Z,3.00
2023-05-16T00:14:53.151Z,17.33
2023-05-16T00:17:58.614Z,18.67
2023-05-16T00:21:02.256Z,16.00
2023-05-16T00:24:07.100Z,13.67
2023-05-16T00:27:10.729Z,14.00
2023-05-16T00:30:16.522Z,16.33
2023-05-16T00:33:21.654Z,15.67
2023-05-16T00:36:25.556Z,15.00
2023-05-16T00:39:31.093Z,14.00
2023-05-16T00:42:35.435Z,17.00
2023-05-16T00:45:41.410Z,17.00
2023-05-16T00:48:46.247Z,16.33
2023-05-16T00:51:50.425Z,14.00
2023-05-16T00:54:54.934Z,17.33
2023-05-16T00:57:59.879Z,16.33
2023-05-16T01:01:05.947Z,13.67
2023-05-16T01:04:09.790Z,16.00
2023-05-16T01:07:16.572Z,16.33
2023-05-16T01:10:20.472Z,15.67
2023-05-16T01:13:34.337Z,12.67
2023-05-16T01:16:44.837Z,16.00
2023-05-16T01:20:06.522Z,16.67
2023-05-16T01:23:26.388Z,17.67
2023-05-16T01:26:33.189Z,15.33
2023-05-16T01:29:36.963Z,15.67
2023-05-16T01:32:41.615Z,18.00
2023-05-16T01:35:51.856Z,20.00
2023-05-16T01:39:04.227Z,19.00
2023-05-16T01:42:12.697Z,18.00
2023-05-16T01:45:23.290Z,18.33
2023-05-16T01:48:36.810Z,17.33
2023-05-16T01:51:43.109Z,14.67
2023-05-16T01:54:49.541Z,19.00
2023-05-16T01:57:55.569Z,17.67
2023-05-16T02:01:04.108Z,19.00
2023-05-16T02:04:08.185Z,17.00
2023-05-16T02:07:14.462Z,15.67
2023-05-16T02:10:18.472Z,22.75
2023-05-16T02:13:23.479Z,17.00
2023-05-16T02:16:27.622Z,15.33
2023-05-16T02:19:31.541Z,18.00
2023-05-16T02:22:36.210Z,21.50
2023-05-16T02:25:39.725Z,16.33
2023-05-16T02:28:49.908Z,20.75
2023-05-16T02:31:53.483Z,15.25
2023-05-16T02:34:57.350Z,18.00
2023-05-16T02:38:01.770Z,23.00
2023-05-16T02:41:06.824Z,16.50
2023-05-16T02:44:11.926Z,22.50
2023-05-16T02:47:16.211Z,16.67
2023-05-16T02:50:21.039Z,22.50
2023-05-16T02:53:24.962Z,20.33
2023-05-16T02:56:28.894Z,15.33
2023-05-16T02:59:34.592Z,21.67
2023-05-16T03:03:58.241Z,22.50
2023-05-16T03:07:02.871Z,19.50
2023-05-16T03:10:08.108Z,20.50
2023-05-16T03:13:12.675Z,23.00
2023-05-16T03:16:17.871Z,20.75
2023-05-16T03:19:21.976Z,23.50
2023-05-16T03:22:25.683Z,21.00
2023-05-16T03:25:30.145Z,21.50
2023-05-16T03:28:33.928Z,23.50
2023-05-16T03:31:39.709Z,21.25
2023-05-16T03:34:43.221Z,23.00
2023-05-16T03:37:47.174Z,18.50
2023-05-16T03:40:51.402Z,20.00
2023-05-16T03:43:55.325Z,22.75
2023-05-16T03:47:00.408Z,20.50
2023-05-16T03:50:23.896Z,20.75
2023-05-16T03:53:27.698Z,20.00
2023-05-16T03:56:31.786Z,22.50
2023-05-16T03:59:36.238Z,25.75
2023-05-16T04:02:42.069Z,24.75
2023-05-16T04:05:45.905Z,25.75
2023-05-16T04:08:50.231Z,21.25
2023-05-16T04:11:55.705Z,25.75
2023-05-16T04:14:59.876Z,22.50
2023-05-16T04:18:07.413Z,23.50
2023-05-16T04:21:15.401Z,24.25
2023-05-16T04:24:19.254Z,22.75
2023-05-16T04:27:23.617Z,23.50
2023-05-16T04:30:27.444Z,23.25
2023-05-16T04:33:33.127Z,27.25
2023-05-16T04:36:37.235Z,26.75
2023-05-16T04:39:41.313Z,22.00
2023-05-16T04:42:45.887Z,26.25
2023-05-16T04:45:52.607Z,23.25
2023-05-16T04:48:59.038Z,24.00
2023-05-16T04:52:03.812Z,26.75
2023-05-16T04:55:08.072Z,25.75
2023-05-16T04:58:12.745Z,29.50
2023-05-16T05:01:23.909Z,21.75
2023-05-16T05:04:29.663Z,25.25
2023-05-16T05:07:34.091Z,23.25
2023-05-16T05:10:39.580Z,29.00
2023-05-16T05:13:43.339Z,23.00
2023-05-16T05:16:47.582Z,30.50
2023-05-16T05:19:53.032Z,27.00
2023-05-16T05:22:57.066Z,26.00
2023-05-16T05:26:00.889Z,24.00
2023-05-16T05:29:06.291Z,26.25
2023-05-16T05:32:10.449Z,26.75
2023-05-16T05:35:16.524Z,27.00
2023-05-16T05:38:20.190Z,24.25
2023-05-16T05:41:24.317Z,28.25
2023-05-16T05:44:36.050Z,27.25
2023-05-16T05:47:45.712Z,25.25
2023-05-16T05:50:50.742Z,24.00
2023-05-16T05:53:55.411Z,21.67
2023-05-16T05:56:58.935Z,26.50
2023-05-16T06:00:03.038Z,21.00
2023-05-16T06:03:11.543Z,30.50
2023-05-16T06:06:17.104Z,28.00
2023-05-16T06:09:20.927Z,26.50
2023-05-16T06:12:25.050Z,23.00
2023-05-16T06:15:28.868Z,25.00
2023-05-16T06:18:32.947Z,27.25
2023-05-16T06:21:38.062Z,26.50
2023-05-16T06:24:43.138Z,19.50
2023-05-16T06:27:46.728Z,24.25
2023-05-16T06:30:51.890Z,24.75
2023-05-16T06:33:55.678Z,30.75
2023-05-16T06:37:03.817Z,27.25
2023-05-16T06:40:09.280Z,24.75
2023-05-16T06:43:13.535Z,28.75
2023-05-16T06:46:17.295Z,21.75
2023-05-16T06:49:23.771Z,27.75
2023-05-16T06:52:29.565Z,21.00
2023-05-16T06:55:33.861Z,21.50
2023-05-16T06:58:37.897Z,21.00
2023-05-16T07:01:45.050Z,23.75
2023-05-16T07:04:52.078Z,20.00
2023-05-16T07:07:57.762Z,21.33
2023-05-16T07:11:01.361Z,26.50
2023-05-16T07:14:11.598Z,19.33
2023-05-16T07:17:16.647Z,16.67
2023-05-16T07:20:20.836Z,30.00
2023-05-16T07:23:25.982Z,22.33
2023-05-16T07:26:30.153Z,23.00
2023-05-16T07:29:34.186Z,23.33
2023-05-16T07:32:38.615Z,19.67
2023-05-16T07:35:42.653Z,25.00
2023-05-16T07:38:48.399Z,26.00
2023-05-16T07:41:52.217Z,24.33
2023-05-16T07:44:57.193Z,21.00
2023-05-16T07:48:01.104Z,27.33
2023-05-16T07:51:05.592Z,31.50
2023-05-16T07:54:10.723Z,38.50
2023-05-16T07:57:16.049Z,25.00
2023-05-16T08:00:21.581Z,20.33
2023-05-16T08:03:25.744Z,23.67
2023-05-16T08:06:31.720Z,24.67
2023-05-16T08:09:37.413Z,26.00
2023-05-16T08:12:40.963Z,25.00
2023-05-16T08:15:45.038Z,20.00
2023-05-16T08:18:48.787Z,20.33
2023-05-16T08:21:54.414Z,21.33
2023-05-16T08:25:00.709Z,21.50
2023-05-16T08:28:04.924Z,18.00
2023-05-16T08:31:09.265Z,22.00
2023-05-16T08:34:13.446Z,21.33
2023-05-16T08:37:18.228Z,29.75
2023-05-16T08:40:27.703Z,22.33
2023-05-16T08:43:55.704Z,23.00
2023-05-16T08:47:13.484Z,30.67
2023-05-16T08:50:17.713Z,22.33
2023-05-16T08:53:25.607Z,19.33
2023-05-16T08:56:35.276Z,24.67
2023-05-16T08:59:39.196Z,17.00
2023-05-16T09:02:44.868Z,22.00
2023-05-16T09:05:50.199Z,17.33
2023-05-16T09:08:54.306Z,19.33
2023-05-16T09:11:59.810Z,18.00
2023-05-16T09:15:04.328Z,23.33
2023-05-16T09:18:13.979Z,24.33
2023-05-16T09:21:18.378Z,19.00
2023-05-16T09:28:02.057Z,22.67
2023-05-16T09:31:20.962Z,16.00
2023-05-16T09:34:25.040Z,18.67
2023-05-16T09:37:33.634Z,18.00
2023-05-16T09:40:42.739Z,24.33
2023-05-16T09:43:47.989Z,17.33
2023-05-16T09:46:52.138Z,19.67
2023-05-16T09:49:56.256Z,14.33
2023-05-16T09:53:01.179Z,13.67
2023-05-16T09:56:07.825Z,15.00
2023-05-16T09:59:16.676Z,14.00
2023-05-16T10:02:21.966Z,13.67
2023-05-16T10:05:28.483Z,15.33
2023-05-16T10:08:37.856Z,12.67
2023-05-16T10:11:46.827Z,11.67
2023-05-16T10:14:52.052Z,13.33
2023-05-16T10:17:58.973Z,12.00
2023-05-16T10:21:11.269Z,12.33
2023-05-16T10:24:22.954Z,11.33
2023-05-16T10:27:27.458Z,12.00
2023-05-16T10:30:44.204Z,13.00
2023-05-16T10:33:48.814Z,10.33
2023-05-16T10:37:07.170Z,14.33
2023-05-16T10:40:11.827Z,11.00
2023-05-16T10:43:26.006Z,15.33
2023-05-16T10:46:31.223Z,18.67
2023-05-16T10:49:36.611Z,21.00
2023-05-16T10:52:43.540Z,19.67
2023-05-16T10:55:52.789Z,22.67
2023-05-16T10:58:57.041Z,20.33
2023-05-16T11:02:02.789Z,16.00
2023-05-16T11:05:08.117Z,20.00
2023-05-16T11:08:15.820Z,16.67
2023-05-16T11:11:42.104Z,20.67
2023-05-16T11:14:52.601Z,17.00
2023-05-16T11:18:08.387Z,20.67
2023-05-16T11:21:12.708Z,18.33
2023-05-16T11:24:30.220Z,21.00
2023-05-16T11:27:36.519Z,16.33
2023-05-16T11:31:00.386Z,13.67
2023-05-16T11:34:07.673Z,13.33
2023-05-16T11:37:12.563Z,16.00
2023-05-16T11:40:17.297Z,15.33
2023-05-16T11:43:21.477Z,12.33
2023-05-16T11:46:25.127Z,10.33
2023-05-16T11:49:31.338Z,10.00
2023-05-16T11:52:34.901Z,10.67
2023-05-16T11:55:41.952Z,9.33
2023-05-16T11:58:47.999Z,11.33
2023-05-16T12:01:52.214Z,14.33
2023-05-16T12:04:57.872Z,16.00
2023-05-16T12:08:03.087Z,12.33
2023-05-16T12:11:07.579Z,13.33
2023-05-16T12:14:13.877Z,13.67
2023-05-16T12:17:17.684Z,13.00
2023-05-16T12:20:26.264Z,12.67
2023-05-16T12:23:32.016Z,17.00
2023-05-16T12:26:39.210Z,18.33
2023-05-16T12:29:49.022Z,15.33
2023-05-16T12:33:00.246Z,16.00
2023-05-16T12:36:08.202Z,8.67
2023-05-16T12:39:15.488Z,10.00
2023-05-16T12:42:25.668Z,8.00
2023-05-16T12:45:33.959Z,9.67
2023-05-16T12:48:42.262Z,9.33
2023-05-16T12:51:53.295Z,13.33
2023-05-16T12:54:57.133Z,10.33
2023-05-16T12:58:02.601Z,12.00
2023-05-16T18:54:23.332Z,23.75
2023-05-16T18:57:28.672Z,18.25
2023-05-16T19:00:37.086Z,26.50
2023-05-16T19:03:44.301Z,18.50
2023-05-16T19:06:48.875Z,17.33
2023-05-16T19:09:55.263Z,17.67
2023-05-16T19:13:07.099Z,19.00
2023-05-16T19:16:12.108Z,17.00
2023-05-16T19:19:31.584Z,22.33
2023-05-16T19:22:38.278Z,24.00
2023-05-16T19:25:48.208Z,24.00
2023-05-16T19:28:54.611Z,18.67
2023-05-16T19:32:02.435Z,12.33
2023-05-16T19:35:09.161Z,35.00
2023-05-16T19:38:17.650Z,30.75
2023-05-16T19:41:29.755Z,31.00
2023-05-16T19:44:35.295Z,21.33
2023-05-16T19:47:41.023Z,26.67
2023-05-16T19:50:50.602Z,23.67
2023-05-16T19:54:06.054Z,17.00
2023-05-16T19:57:22.743Z,21.33
2023-05-16T20:00:30.601Z,16.67
2023-05-16T20:03:34.402Z,28.00
2023-05-16T20:06:38.916Z,27.75
2023-05-16T20:09:42.760Z,17.00
2023-05-16T20:12:52.147Z,28.50
2023-05-16T20:15:59.634Z,31.00
2023-05-16T20:19:03.817Z,17.00
2023-05-16T20:22:07.656Z,21.00
2023-05-16T20:25:14.325Z,23.00
2023-05-16T20:28:19.483Z,23.00
2023-05-16T20:31:25.072Z,26.25
2023-05-16T20:34:28.747Z,27.00
2023-05-16T20:37:32.830Z,21.00
2023-05-16T20:40:38.597Z,23.75
2023-05-16T20:43:47.159Z,24.00
2023-05-16T20:46:54.164Z,22.00
2023-05-16T20:50:03.081Z,18.67
2023-05-16T20:53:09.060Z,15.33
2023-05-16T20:56:39.508Z,15.33
2023-05-16T20:59:45.462Z,15.67
2023-05-16T21:02:51.416Z,20.00
2023-05-16T21:05:58.357Z,17.00
2023-05-16T21:09:02.814Z,11.67
2023-05-16T21:12:07.022Z,16.67
2023-05-16T21:15:13.620Z,15.33
2023-05-16T21:18:17.741Z,14.33
2023-05-16T21:21:22.024Z,13.00
2023-05-16T21:24:26.169Z,14.00
2023-05-16T21:27:37.255Z,15.00
2023-05-16T21:30:45.999Z,15.00
2023-05-16T21:33:52.250Z,23.00
2023-05-16T21:36:57.405Z,15.67
2023-05-16T21:40:04.260Z,17.67
2023-05-16T21:43:11.405Z,14.00
2023-05-16T21:46:23.196Z,18.67
2023-05-16T21:49:30.998Z,13.67
2023-05-16T21:52:35.994Z,16.00
2023-05-16T21:55:40.737Z,13.00
2023-05-16T21:58:44.731Z,10.67
2023-05-16T22:01:51.438Z,16.00
2023-05-16T22:04:55.638Z,13.33
2023-05-16T22:07:59.281Z,13.00
2023-05-16T22:11:07.099Z,12.00
2023-05-16T22:14:13.386Z,12.33
2023-05-16T22:17:23.068Z,15.00
2023-05-16T22:20:30.205Z,16.00
2023-05-16T22:23:35.480Z,15.00
2023-05-16T22:26:42.056Z,14.67
2023-05-16T22:29:46.370Z,14.00
2023-05-16T22:32:51.353Z,14.67
2023-05-16T22:35:55.425Z,16.00
2023-05-16T22:38:59.009Z,14.00
2023-05-16T22:42:03.918Z,12.33
2023-05-16T22:45:09.426Z,13.00
2023-05-16T22:48:15.899Z,13.33
2023-05-16T22:51:21.698Z,12.67
2023-05-16T22:54:25.705Z,14.67
2023-05-16T22:57:38.477Z,14.33
2023-05-16T23:00:43.855Z,15.67
2023-05-16T23:03:57.054Z,15.67
2023-05-16T23:10:39.040Z,22.00
2023-05-16T23:13:43.125Z,20.33
2023-05-16T23:16:47.069Z,20.33
2023-05-16T23:19:52.707Z,20.67
2023-05-16T23:22:56.901Z,20.33
2023-05-16T23:26:01.314Z,18.67
2023-05-16T23:29:06.648Z,15.33
2023-05-16T23:32:11.367Z,15.00
2023-05-16T23:35:20.895Z,17.00
2023-05-16T23:38:25.829Z,14.00
2023-05-16T23:41:30.079Z,18.67
2023-05-16T23:44:35.902Z,15.67
2023-05-16T23:47:42.805Z,18.33
2023-05-16T23:52:04.944Z,16.00
2023-05-16T23:55:11.380Z,18.33
2023-05-16T23:58:16.381Z,13.00
